Weymouth, Canada
Current Conditions -  °F | °C
As of 8:00 PM on Wednesday 22 Oct 2014 (Local Time) from CYQI Reporting Station
Rain Showers Rain Showers  
Wind Chill: 54°   Ceiling: 1100
Heat Index: 54°   Visibility: 3mi
Dew Point: 54°   Wind: 18mph
Humidity: 100%   Direction: 70°ENE
Pressure: 30.01"   Gusts: 28mph
Location:  44.42°N, 65.98°W
Report Text: CYQI 222300Z 07016G24KT 3SM +SHRA BR SCT005 OVC011 12/12 A3001 RMK SF4SF4 SLP162
Loading
Personal Weather Stations






























Interactive Weather Map
Tropical Storm Tracking
New forecast layout! Learn more

10-Day Weather Forecast

Advertisements
Track Severe Weather on mobile